createdAt,value
2022-08-24T00:00:01.550Z,112.25
2022-08-24T00:02:31.560Z,113.45
2022-08-24T00:05:01.978Z,122.05
2022-08-24T00:07:32.482Z,114.53
2022-08-24T00:10:02.753Z,99.65
2022-08-24T00:12:33.833Z,100.43
2022-08-24T00:15:06.666Z,94.53
2022-08-24T00:17:37.162Z,108.93
2022-08-24T00:20:08.444Z,84.47
2022-08-24T00:22:39.618Z,100.65
2022-08-24T00:25:10.711Z,92.65
2022-08-24T00:27:42.339Z,99.30
2022-08-24T00:30:20.790Z,99.03
2022-08-24T00:32:52.309Z,90.20
2022-08-24T00:35:23.072Z,101.15
2022-08-24T00:37:54.764Z,87.45
2022-08-24T00:40:27.108Z,89.05
2022-08-24T00:42:57.714Z,83.43
2022-08-24T00:45:36.537Z,89.47
2022-08-24T00:48:13.559Z,84.10
2022-08-24T00:50:49.376Z,88.47
2022-08-24T00:53:25.939Z,94.47
2022-08-24T00:56:01.291Z,94.05
2022-08-24T00:58:36.651Z,96.95
2022-08-24T01:01:11.800Z,98.15
2022-08-24T01:03:56.612Z,94.32
2022-08-24T01:06:29.149Z,92.80
2022-08-24T01:08:58.884Z,94.32
2022-08-24T01:11:34.784Z,98.85
2022-08-24T01:14:06.116Z,97.15
2022-08-24T01:16:54.487Z,88.30
2022-08-24T01:19:36.090Z,97.60
2022-08-24T01:22:19.867Z,90.70
2022-08-24T01:24:52.290Z,99.95
2022-08-24T01:27:27.756Z,105.70
2022-08-24T01:30:02.298Z,102.90
2022-08-24T01:32:31.950Z,96.90
2022-08-24T01:35:01.354Z,108.85
2022-08-24T01:37:33.525Z,104.50
2022-08-24T01:40:09.732Z,110.88
2022-08-24T01:42:39.745Z,107.57
2022-08-24T01:45:12.302Z,109.93
2022-08-24T01:47:43.693Z,114.25
2022-08-24T01:50:13.965Z,112.30
2022-08-24T01:53:04.336Z,114.35
2022-08-24T01:55:38.321Z,123.70
2022-08-24T01:58:10.194Z,123.90
2022-08-24T02:00:41.806Z,111.18
2022-08-24T02:03:11.316Z,111.97
2022-08-24T02:05:45.868Z,108.60
2022-08-24T02:08:17.913Z,112.32
2022-08-24T02:10:56.343Z,97.15
2022-08-24T02:13:31.313Z,113.22
2022-08-24T02:16:01.468Z,108.43
2022-08-24T02:18:36.612Z,117.38
2022-08-24T02:21:11.312Z,116.40
2022-08-24T02:23:42.257Z,121.45
2022-08-24T02:26:13.493Z,95.28
2022-08-24T02:28:43.444Z,115.85
2022-08-24T02:31:14.986Z,107.28
2022-08-24T02:33:47.197Z,116.55
2022-08-24T02:36:25.305Z,107.30
2022-08-24T02:39:00.396Z,110.15
2022-08-24T02:41:31.503Z,99.05
2022-08-24T02:44:01.605Z,107.82
2022-08-24T02:46:33.137Z,105.70
2022-08-24T02:49:11.642Z,105.30
2022-08-24T02:51:48.888Z,116.63
2022-08-24T02:54:23.402Z,113.63
2022-08-24T02:56:56.198Z,108.22
2022-08-24T02:59:27.672Z,113.28
2022-08-24T03:01:58.332Z,114.38
2022-08-24T03:04:30.756Z,112.35
2022-08-24T03:07:02.376Z,122.57
2022-08-24T03:09:32.856Z,108.82
2022-08-24T03:12:03.767Z,117.78
2022-08-24T03:14:33.713Z,113.05
2022-08-24T03:17:02.868Z,108.00
2022-08-24T03:19:33.159Z,104.88
2022-08-24T03:22:02.885Z,112.80
2022-08-24T03:24:34.275Z,115.32
2022-08-24T03:27:06.812Z,120.50
2022-08-24T03:29:38.163Z,119.95
2022-08-24T03:32:09.823Z,129.30
2022-08-24T03:34:40.867Z,125.47
2022-08-24T03:37:10.546Z,122.15
2022-08-24T03:39:39.763Z,133.90
2022-08-24T03:42:12.031Z,160.50
2022-08-24T03:44:42.867Z,133.32
2022-08-24T03:47:14.147Z,113.40
2022-08-24T03:49:44.282Z,109.38
2022-08-24T03:52:16.303Z,111.30
2022-08-24T03:54:46.926Z,111.32
2022-08-24T03:57:20.963Z,110.53
2022-08-24T03:59:50.738Z,106.28
2022-08-24T04:02:22.272Z,119.35
2022-08-24T04:04:52.437Z,104.65
2022-08-24T04:07:21.796Z,131.88
2022-08-24T04:09:51.334Z,117.78
2022-08-24T04:12:24.070Z,127.88
2022-08-24T04:14:55.793Z,127.78
2022-08-24T04:17:26.834Z,113.63
2022-08-24T04:20:02.550Z,126.75
2022-08-24T04:22:37.070Z,130.48
2022-08-24T04:25:08.894Z,134.27
2022-08-24T04:27:43.582Z,121.18
2022-08-24T04:30:16.361Z,154.95
2022-08-24T04:33:06.141Z,122.88
2022-08-24T04:35:39.831Z,115.53
2022-08-24T04:38:09.676Z,108.53
2022-08-24T04:40:41.821Z,99.07
2022-08-24T04:43:19.481Z,118.20
2022-08-24T04:45:51.153Z,106.60
2022-08-24T04:48:21.489Z,95.70
2022-08-24T04:50:51.034Z,96.30
2022-08-24T04:53:20.658Z,92.63
2022-08-24T04:55:52.989Z,97.60
2022-08-24T04:58:23.825Z,102.72
2022-08-24T05:00:53.853Z,91.68
2022-08-24T05:03:24.433Z,93.97
2022-08-24T05:05:55.945Z,90.55
2022-08-24T05:08:27.397Z,104.63
2022-08-24T05:10:57.065Z,94.32
2022-08-24T05:13:28.675Z,90.07
2022-08-24T05:15:59.499Z,83.53
2022-08-24T05:18:30.331Z,86.70
2022-08-24T05:21:00.087Z,100.07
2022-08-24T05:23:31.889Z,86.35
2022-08-24T05:26:08.864Z,77.43
2022-08-24T05:28:40.119Z,76.55
2022-08-24T05:31:11.421Z,72.03
2022-08-24T05:33:41.547Z,74.72
2022-08-24T05:36:21.741Z,76.40
2022-08-24T05:38:52.799Z,77.65
2022-08-24T05:41:26.319Z,67.70
2022-08-24T05:44:13.368Z,79.13
2022-08-24T05:46:43.860Z,71.78
2022-08-24T05:49:13.612Z,63.65
2022-08-24T05:51:44.423Z,75.78
2022-08-24T05:54:15.955Z,69.78
2022-08-24T05:56:55.260Z,71.38
2022-08-24T05:59:28.812Z,77.90
2022-08-24T06:02:01.261Z,67.85
2022-08-24T06:04:33.094Z,64.57
2022-08-24T06:07:02.108Z,63.13
2022-08-24T06:09:34.719Z,61.08
2022-08-24T06:12:04.827Z,56.42
2022-08-24T06:14:36.712Z,59.28
2022-08-24T06:17:14.923Z,58.15
2022-08-24T06:19:45.512Z,59.53
2022-08-24T06:22:16.658Z,52.08
2022-08-24T06:25:02.923Z,51.83
2022-08-24T06:27:34.431Z,53.35
2022-08-24T06:30:12.925Z,52.70
2022-08-24T06:32:48.265Z,40.95
2022-08-24T06:35:44.767Z,40.85
2022-08-24T06:38:17.365Z,38.53
2022-08-24T06:40:50.787Z,37.10
2022-08-24T06:43:22.372Z,36.35
2022-08-24T06:46:02.117Z,31.23
2022-08-24T06:48:36.933Z,27.15
2022-08-24T06:51:12.391Z,29.20
2022-08-24T06:53:42.730Z,28.23
2022-08-24T06:56:18.781Z,28.50
2022-08-24T06:58:50.405Z,25.92
2022-08-24T07:01:27.575Z,24.85
2022-08-24T07:03:58.224Z,24.80
2022-08-24T07:06:59.680Z,23.35
2022-08-24T07:09:29.281Z,24.52
2022-08-24T07:11:58.797Z,19.63
2022-08-24T07:14:28.450Z,21.15
2022-08-24T07:17:02.004Z,22.63
2022-08-24T07:19:37.561Z,20.63
2022-08-24T07:22:10.408Z,23.02
2022-08-24T07:24:41.311Z,23.25
2022-08-24T07:27:15.177Z,22.88
2022-08-24T07:29:52.734Z,24.05
2022-08-24T07:32:26.024Z,23.98
2022-08-24T07:34:59.488Z,19.83
2022-08-24T07:37:41.138Z,19.48
2022-08-24T07:40:13.997Z,22.27
2022-08-24T07:42:45.097Z,21.45
2022-08-24T07:45:15.225Z,25.23
2022-08-24T07:47:55.483Z,25.90
2022-08-24T07:50:39.838Z,30.55
2022-08-24T07:53:13.858Z,28.23
2022-08-24T07:55:46.243Z,29.23
2022-08-24T07:58:16.553Z,27.92
2022-08-24T08:00:49.488Z,25.25
2022-08-24T08:03:22.249Z,28.05
2022-08-24T08:05:59.776Z,27.35
2022-08-24T08:08:29.851Z,28.50
2022-08-24T08:11:02.276Z,30.60
2022-08-24T08:13:32.414Z,29.58
2022-08-24T08:16:06.438Z,29.30
2022-08-24T08:18:40.088Z,29.50
2022-08-24T08:21:27.432Z,27.77
2022-08-24T08:24:17.143Z,27.08
2022-08-24T08:26:55.336Z,24.30
2022-08-24T08:29:38.496Z,32.25
2022-08-24T08:32:12.255Z,24.67
2022-08-24T08:34:44.506Z,27.27
2022-08-24T08:37:16.011Z,26.90
2022-08-24T08:39:47.196Z,28.92
2022-08-24T08:42:41.711Z,25.77
2022-08-24T08:45:26.775Z,23.73
2022-08-24T08:49:04.359Z,28.67
2022-08-24T08:52:11.338Z,25.25
2022-08-24T08:55:01.642Z,28.45
2022-08-24T08:57:51.138Z,27.90
2022-08-24T09:00:26.418Z,27.35
2022-08-24T09:03:28.702Z,30.85
2022-08-24T09:06:41.190Z,28.02
2022-08-24T09:09:34.755Z,28.20
2022-08-24T09:12:16.469Z,26.75
2022-08-24T09:15:16.745Z,28.00
2022-08-24T09:18:18.673Z,31.38
2022-08-24T09:21:01.937Z,27.25
2022-08-24T09:23:38.473Z,33.28
2022-08-24T09:26:21.664Z,29.98
2022-08-24T09:29:07.955Z,27.40
2022-08-24T09:31:59.928Z,31.08
2022-08-24T09:34:41.137Z,28.98
2022-08-24T09:37:33.593Z,27.60
2022-08-24T09:40:14.967Z,29.00
2022-08-24T09:43:22.760Z,23.75
2022-08-24T09:46:25.241Z,24.77
2022-08-24T09:49:32.165Z,23.52
2022-08-24T09:52:49.188Z,34.83
2022-08-24T09:55:59.996Z,31.67
2022-08-24T09:58:48.689Z,30.15
2022-08-24T10:01:30.449Z,26.20
2022-08-24T10:04:16.546Z,26.23
2022-08-24T10:06:57.172Z,26.45
2022-08-24T10:09:55.504Z,29.15
2022-08-24T10:12:46.079Z,28.20
2022-08-24T10:15:21.828Z,27.40
2022-08-24T10:18:19.748Z,27.38
2022-08-24T10:21:05.463Z,25.65
2022-08-24T10:23:55.452Z,26.30
2022-08-24T10:26:35.552Z,25.48
2022-08-24T10:29:32.806Z,22.60
2022-08-24T10:32:23.226Z,20.98
2022-08-24T10:35:06.660Z,19.63
2022-08-24T10:38:16.633Z,19.88
2022-08-24T10:40:57.936Z,18.90
2022-08-24T10:43:56.142Z,22.63
2022-08-24T10:46:41.496Z,24.67
2022-08-24T10:49:58.882Z,17.98
2022-08-24T10:52:51.012Z,18.73
2022-08-24T10:55:23.948Z,23.25
2022-08-24T10:58:17.290Z,20.33
2022-08-24T11:00:48.066Z,21.83
2022-08-24T11:03:27.756Z,18.00
2022-08-24T11:06:01.378Z,16.58
2022-08-24T11:08:34.749Z,20.58
2022-08-24T11:11:10.947Z,16.00
2022-08-24T11:13:53.967Z,14.88
2022-08-24T11:16:30.741Z,12.95
2022-08-24T11:19:04.354Z,14.63
2022-08-24T11:21:43.298Z,13.18
2022-08-24T11:24:27.181Z,18.73
2022-08-24T11:27:01.020Z,16.27
2022-08-24T11:29:52.387Z,14.35
2022-08-24T11:32:29.765Z,15.52
2022-08-24T11:35:04.977Z,15.35
2022-08-24T11:37:37.104Z,18.23
2022-08-24T11:40:10.845Z,16.30
2022-08-24T11:43:13.322Z,19.13
2022-08-24T11:45:50.248Z,32.85
2022-08-24T11:48:32.384Z,16.58
2022-08-24T11:51:09.177Z,16.17
2022-08-24T11:53:59.244Z,17.08
2022-08-24T11:56:42.207Z,21.33
2022-08-24T11:59:25.468Z,15.85
2022-08-24T12:02:00.322Z,17.25
2022-08-24T12:04:45.536Z,16.75
2022-08-24T12:07:26.180Z,18.35
2022-08-24T12:10:11.951Z,20.95
2022-08-24T12:12:48.997Z,24.25
2022-08-24T12:15:23.501Z,21.98
2022-08-24T12:18:03.678Z,19.00
2022-08-24T12:20:37.311Z,20.95
2022-08-24T12:23:10.784Z,18.73
2022-08-24T12:25:57.606Z,23.20
2022-08-24T12:28:35.319Z,17.98
2022-08-24T12:31:12.801Z,17.65
2022-08-24T12:33:50.403Z,31.10
2022-08-24T12:36:32.835Z,16.25
2022-08-24T12:39:12.268Z,21.17
2022-08-24T12:41:53.311Z,17.33
2022-08-24T12:44:31.074Z,25.15
2022-08-24T12:47:00.422Z,25.65
2022-08-24T12:49:37.085Z,19.10
2022-08-24T12:52:45.198Z,21.17
2022-08-24T12:55:33.854Z,24.48
2022-08-24T12:58:32.234Z,18.85
2022-08-24T13:01:09.147Z,20.88
2022-08-24T13:03:41.998Z,16.90
2022-08-24T13:06:20.646Z,18.40
2022-08-24T13:08:53.968Z,27.48
2022-08-24T13:11:32.937Z,24.02
2022-08-24T13:14:19.750Z,20.75
2022-08-24T13:17:11.649Z,17.23
2022-08-24T13:19:44.593Z,12.32
2022-08-24T13:22:44.433Z,17.95
2022-08-24T13:25:28.082Z,12.98
2022-08-24T13:28:10.164Z,11.35
2022-08-24T13:31:04.548Z,13.40
2022-08-24T13:33:39.084Z,16.48
2022-08-24T13:36:26.412Z,16.30
2022-08-24T13:39:22.701Z,15.40
2022-08-24T13:42:11.296Z,14.15
2022-08-24T13:45:17.090Z,13.65
2022-08-24T13:48:04.570Z,11.73
2022-08-24T13:50:46.564Z,12.30
2022-08-24T13:53:49.876Z,19.65
2022-08-24T13:56:50.736Z,17.38
2022-08-24T13:59:55.234Z,13.93
2022-08-24T14:02:35.005Z,11.15
2022-08-24T14:05:12.862Z,15.25
2022-08-24T14:07:56.040Z,14.40
2022-08-24T14:10:46.232Z,17.88
2022-08-24T14:13:34.700Z,17.42
2022-08-24T14:16:30.938Z,20.25
2022-08-24T14:19:13.152Z,25.42
2022-08-24T14:21:48.671Z,16.42
2022-08-24T14:24:33.092Z,10.48
2022-08-24T14:27:10.445Z,15.13
2022-08-24T14:29:50.727Z,17.38
2022-08-24T14:32:32.401Z,14.30
2022-08-24T14:35:20.952Z,18.55
2022-08-24T14:38:26.651Z,21.60
2022-08-24T14:41:05.240Z,133.20
2022-08-24T14:43:47.329Z,20.02
2022-08-24T14:46:29.111Z,12.77
2022-08-24T14:49:14.187Z,23.30
2022-08-24T14:52:03.366Z,20.17
2022-08-24T14:54:53.252Z,12.40
2022-08-24T14:57:42.490Z,16.65
2022-08-24T15:00:15.382Z,31.60
2022-08-24T15:03:19.683Z,132.23
2022-08-24T15:06:26.247Z,26.67
2022-08-24T15:09:13.735Z,33.70
2022-08-24T15:11:44.454Z,46.08
2022-08-24T15:14:33.623Z,22.40
2022-08-24T15:17:18.894Z,22.27
2022-08-24T15:20:02.443Z,21.88
2022-08-24T15:22:43.958Z,23.55
2022-08-24T15:25:20.162Z,17.83
2022-08-24T15:27:56.348Z,18.98
2022-08-24T15:30:33.615Z,19.38
2022-08-24T15:33:10.560Z,18.17
2022-08-24T15:35:43.963Z,22.20
2022-08-24T15:38:23.798Z,20.13
2022-08-24T15:41:05.165Z,21.02
2022-08-24T15:43:36.537Z,19.67
2022-08-24T15:46:08.102Z,18.90
2022-08-24T15:48:40.793Z,17.23
2022-08-24T15:51:11.365Z,20.30
2022-08-24T15:53:43.525Z,24.17
2022-08-24T15:56:36.301Z,21.30
2022-08-24T15:59:12.747Z,31.02
2022-08-24T16:02:02.623Z,21.60
2022-08-24T16:04:53.233Z,28.70
2022-08-24T16:07:26.424Z,57.50
2022-08-24T16:10:07.869Z,26.35
2022-08-24T16:12:38.872Z,24.65
2022-08-24T16:15:17.720Z,22.05
2022-08-24T16:17:56.760Z,26.45
2022-08-24T16:20:36.217Z,16.42
2022-08-24T16:23:08.540Z,23.92
2022-08-24T16:25:43.245Z,20.05
2022-08-24T16:28:34.071Z,20.88
2022-08-24T16:31:07.630Z,22.25
2022-08-24T16:33:44.435Z,20.13
2022-08-24T16:36:16.926Z,28.02
2022-08-24T16:38:49.847Z,25.75
2022-08-24T16:41:21.972Z,22.48
2022-08-24T16:43:52.062Z,24.83
2022-08-24T16:46:26.657Z,27.60
2022-08-24T16:48:59.480Z,19.77
2022-08-24T16:51:29.497Z,21.73
2022-08-24T16:53:58.936Z,24.95
2022-08-24T16:56:30.435Z,18.75
2022-08-24T16:59:00.776Z,21.92
2022-08-24T17:01:30.469Z,20.90
2022-08-24T17:04:04.555Z,23.27
2022-08-24T17:06:35.690Z,28.85
2022-08-24T17:09:06.471Z,21.20
2022-08-24T17:11:40.141Z,20.70
2022-08-24T17:14:09.991Z,22.40
2022-08-24T17:16:40.355Z,18.63
2022-08-24T17:19:15.459Z,22.45
2022-08-24T17:21:48.140Z,26.13
2022-08-24T17:24:21.688Z,28.25
2022-08-24T17:26:52.605Z,27.50
2022-08-24T17:29:23.794Z,23.50
2022-08-24T17:31:54.433Z,29.10
2022-08-24T17:34:27.899Z,32.65
2022-08-24T17:36:59.066Z,22.33
2022-08-24T17:39:29.014Z,24.80
2022-08-24T17:42:00.907Z,25.70
2022-08-24T17:44:34.386Z,53.10
2022-08-24T17:47:06.206Z,71.85
2022-08-24T17:49:40.326Z,43.42
2022-08-24T17:52:10.014Z,78.72
2022-08-24T17:54:39.410Z,88.05
2022-08-24T17:57:09.458Z,72.68
2022-08-24T17:59:39.467Z,40.05
2022-08-24T18:02:12.666Z,49.78
2022-08-24T18:04:44.873Z,52.65
2022-08-24T18:07:42.325Z,44.60
2022-08-24T18:10:15.739Z,90.75
2022-08-24T18:12:56.386Z,43.67
2022-08-24T18:15:34.518Z,78.22
2022-08-24T18:18:08.871Z,456.25
2022-08-24T18:20:45.458Z,150.32
2022-08-24T18:23:21.148Z,44.63
2022-08-24T18:25:53.376Z,96.45
2022-08-24T18:28:25.165Z,88.65
2022-08-24T18:30:58.826Z,146.30
2022-08-24T18:33:28.802Z,124.80
2022-08-24T18:36:00.945Z,287.88
2022-08-24T18:38:30.535Z,270.40
2022-08-24T18:41:01.878Z,278.33
2022-08-24T18:43:32.226Z,65.97
2022-08-24T18:46:04.101Z,47.05
2022-08-24T18:48:33.905Z,36.00
2022-08-24T18:51:09.236Z,40.42
2022-08-24T18:53:39.506Z,39.97
2022-08-24T18:56:12.441Z,34.55
2022-08-24T18:58:44.350Z,41.08
2022-08-24T19:01:14.667Z,50.88
2022-08-24T19:03:45.074Z,35.00
2022-08-24T19:06:17.060Z,31.75
2022-08-24T19:08:48.209Z,35.22
2022-08-24T19:11:24.346Z,38.92
2022-08-24T19:13:54.618Z,37.80
2022-08-24T19:16:30.346Z,40.67
2022-08-24T19:19:00.684Z,31.48
2022-08-24T19:21:35.612Z,38.90
2022-08-24T19:24:08.616Z,41.88
2022-08-24T19:26:40.393Z,30.95
2022-08-24T19:29:11.925Z,34.47
2022-08-24T19:31:46.380Z,39.20
2022-08-24T19:34:17.961Z,36.30
2022-08-24T19:36:51.068Z,30.10
2022-08-24T19:39:22.930Z,34.72
2022-08-24T19:42:01.864Z,39.35
2022-08-24T19:44:52.066Z,34.15
2022-08-24T19:47:23.183Z,33.10
2022-08-24T19:49:54.318Z,35.17
2022-08-24T19:52:26.465Z,33.78
2022-08-24T19:54:56.531Z,35.45
2022-08-24T19:57:38.648Z,35.22
2022-08-24T20:00:25.472Z,35.97
2022-08-24T20:02:57.935Z,37.78
2022-08-24T20:05:31.774Z,42.15
2022-08-24T20:08:06.426Z,35.70
2022-08-24T20:10:38.628Z,39.55
2022-08-24T20:13:10.943Z,40.10
2022-08-24T20:15:40.947Z,40.72
2022-08-24T20:18:12.451Z,40.50
2022-08-24T20:20:42.980Z,44.53
2022-08-24T20:23:15.283Z,42.95
2022-08-24T20:25:45.699Z,38.88
2022-08-24T20:28:37.819Z,44.20
2022-08-24T20:31:10.015Z,42.17
2022-08-24T20:33:39.789Z,53.08
2022-08-24T20:36:23.159Z,42.90
2022-08-24T20:38:57.153Z,45.15
2022-08-24T20:41:30.826Z,44.20
2022-08-24T20:44:02.538Z,46.45
2022-08-24T20:46:33.571Z,43.67
2022-08-24T20:49:04.399Z,45.92
2022-08-24T20:51:33.763Z,39.92
2022-08-24T20:54:09.478Z,44.88
2022-08-24T20:56:41.230Z,50.35
2022-08-24T20:59:14.781Z,44.53
2022-08-24T21:01:44.501Z,47.92
2022-08-24T21:04:14.151Z,45.17
2022-08-24T21:06:45.538Z,41.95
2022-08-24T21:09:17.394Z,47.08
2022-08-24T21:11:49.314Z,41.65
2022-08-24T21:14:20.363Z,50.33
2022-08-24T21:16:50.838Z,43.42
2022-08-24T21:19:32.949Z,48.63
2022-08-24T21:22:04.453Z,47.50
2022-08-24T21:24:36.195Z,50.53
2022-08-24T21:27:06.790Z,47.95
2022-08-24T21:29:36.229Z,45.85
2022-08-24T21:32:23.723Z,46.38
2022-08-24T21:34:53.895Z,46.05
2022-08-24T21:37:25.444Z,48.35
2022-08-24T21:39:56.789Z,51.28
2022-08-24T21:42:27.699Z,50.55
2022-08-24T21:44:57.705Z,45.72
2022-08-24T21:47:27.603Z,50.25
2022-08-24T21:49:58.619Z,55.17
2022-08-24T21:52:28.417Z,51.17
2022-08-24T21:55:00.615Z,52.47
2022-08-24T21:57:31.753Z,47.28
2022-08-24T22:00:01.369Z,50.53
2022-08-24T22:02:33.450Z,53.72
2022-08-24T22:05:03.192Z,48.58
2022-08-24T22:07:32.349Z,51.50
2022-08-24T22:10:03.867Z,51.42
2022-08-24T22:12:33.833Z,53.95
2022-08-24T22:15:04.116Z,54.90
2022-08-24T22:17:33.620Z,53.78
2022-08-24T22:20:03.240Z,45.10
2022-08-24T22:22:32.903Z,51.90
2022-08-24T22:25:05.973Z,51.72
2022-08-24T22:27:37.913Z,56.10
2022-08-24T22:30:08.744Z,53.53
2022-08-24T22:32:38.132Z,53.85
2022-08-24T22:35:09.834Z,53.85
2022-08-24T22:37:39.776Z,56.40
2022-08-24T22:40:13.287Z,57.15
2022-08-24T22:42:43.045Z,62.90
2022-08-24T22:45:13.116Z,59.08
2022-08-24T22:47:43.040Z,59.33
2022-08-24T22:50:14.539Z,67.43
2022-08-24T22:52:45.407Z,60.65
2022-08-24T22:55:16.511Z,66.50
2022-08-24T22:57:46.479Z,53.03
2022-08-24T23:00:21.063Z,54.47
2022-08-24T23:02:50.824Z,56.33
2022-08-24T23:05:20.644Z,59.05
2022-08-24T23:07:49.632Z,58.33
2022-08-24T23:10:21.811Z,60.47
2022-08-24T23:12:51.152Z,55.60
2022-08-24T23:15:20.439Z,56.53
2022-08-24T23:17:49.981Z,55.70
2022-08-24T23:20:17.818Z,52.15
2022-08-24T23:22:48.780Z,55.88
2022-08-24T23:25:21.482Z,62.25
2022-08-24T23:27:53.798Z,58.10
2022-08-24T23:30:23.570Z,58.53
2022-08-24T23:32:53.530Z,67.45
2022-08-24T23:35:24.179Z,59.65
2022-08-24T23:37:56.182Z,66.57
2022-08-24T23:40:26.799Z,58.75
2022-08-24T23:42:56.346Z,55.63
2022-08-24T23:45:28.400Z,53.58
2022-08-24T23:48:00.170Z,59.72
2022-08-24T23:50:29.365Z,54.10
2022-08-24T23:52:58.862Z,56.47
2022-08-24T23:55:30.003Z,61.60
2022-08-24T23:57:59.430Z,64.05
